createdAt,value
2018-08-20T00:00:45.471Z,6.63
2018-08-20T00:03:13.760Z,6.60
2018-08-20T00:05:45.215Z,6.50
2018-08-20T00:08:13.447Z,6.77
2018-08-20T00:10:41.653Z,6.17
2018-08-20T00:13:09.857Z,6.70
2018-08-20T00:15:38.070Z,6.87
2018-08-20T00:18:06.431Z,7.30
2018-08-20T00:20:34.635Z,7.33
2018-08-20T00:23:03.689Z,6.87
2018-08-20T00:25:31.925Z,7.20
2018-08-20T00:28:00.485Z,6.77
2018-08-20T00:30:28.687Z,6.77
2018-08-20T00:32:56.919Z,6.97
2018-08-20T00:35:25.121Z,7.33
2018-08-20T00:37:53.624Z,7.10
2018-08-20T00:40:22.192Z,7.13
2018-08-20T00:42:50.443Z,6.73
2018-08-20T00:45:18.646Z,7.03
2018-08-20T00:47:46.879Z,6.87
2018-08-20T00:50:15.103Z,7.20
2018-08-20T00:52:43.326Z,6.93
2018-08-20T00:55:12.951Z,7.57
2018-08-20T00:57:41.672Z,6.90
2018-08-20T01:00:10.665Z,6.33
2018-08-20T01:02:38.899Z,7.63
2018-08-20T01:05:07.116Z,7.27
2018-08-20T01:07:35.355Z,6.43
2018-08-20T01:10:04.016Z,7.50
2018-08-20T01:12:32.231Z,7.37
2018-08-20T01:15:00.459Z,6.90
2018-08-20T01:17:28.688Z,6.57
2018-08-20T01:19:56.940Z,6.83
2018-08-20T01:22:25.159Z,7.43
2018-08-20T01:24:53.396Z,6.47
2018-08-20T01:27:29.490Z,6.80
2018-08-20T01:29:57.733Z,6.60
2018-08-20T01:32:25.937Z,6.97
2018-08-20T01:34:54.201Z,6.53
2018-08-20T01:37:22.745Z,6.47
2018-08-20T01:39:51.156Z,6.47
2018-08-20T01:42:19.529Z,6.90
2018-08-20T01:44:48.428Z,6.30
2018-08-20T01:47:16.640Z,6.57
2018-08-20T01:49:44.860Z,6.60
2018-08-20T01:52:13.058Z,6.17
2018-08-20T01:54:41.288Z,6.30
2018-08-20T01:57:09.519Z,6.80
2018-08-20T01:59:38.573Z,6.63
2018-08-20T02:02:06.791Z,6.37
2018-08-20T02:04:35.020Z,6.37
2018-08-20T02:07:03.266Z,6.80
2018-08-20T02:09:31.548Z,7.33
2018-08-20T02:11:59.768Z,6.50
2018-08-20T02:14:27.991Z,7.20
2018-08-20T02:16:56.219Z,6.77
2018-08-20T02:19:24.451Z,7.40
2018-08-20T02:21:52.669Z,7.20
2018-08-20T02:24:20.882Z,7.00
2018-08-20T02:26:49.092Z,7.57
2018-08-20T02:29:17.332Z,6.90
2018-08-20T02:31:45.568Z,6.87
2018-08-20T02:34:13.863Z,6.83
2018-08-20T02:36:42.120Z,6.83
2018-08-20T02:39:12.825Z,6.73
2018-08-20T02:41:41.513Z,6.30
2018-08-20T02:44:10.808Z,6.87
2018-08-20T02:46:43.805Z,6.80
2018-08-20T02:49:12.198Z,7.00
2018-08-20T02:51:40.544Z,7.23
2018-08-20T02:54:09.030Z,7.13
2018-08-20T02:56:37.258Z,7.07
2018-08-20T02:59:05.492Z,7.03
2018-08-20T03:01:33.683Z,7.60
2018-08-20T03:04:01.946Z,7.60
2018-08-20T03:06:30.213Z,7.40
2018-08-20T03:08:58.464Z,7.90
2018-08-20T03:11:26.700Z,6.97
2018-08-20T03:13:54.951Z,7.17
2018-08-20T03:16:23.175Z,7.53
2018-08-20T03:18:51.455Z,7.20
2018-08-20T03:21:19.663Z,7.17
2018-08-20T03:23:47.906Z,7.37
2018-08-20T03:26:16.180Z,7.07
2018-08-20T03:28:44.398Z,7.60
2018-08-20T03:31:12.682Z,6.93
2018-08-20T03:33:40.945Z,7.70
2018-08-20T03:36:09.177Z,7.70
2018-08-20T03:38:37.413Z,7.17
2018-08-20T03:41:05.688Z,7.43
2018-08-20T03:43:34.105Z,7.20
2018-08-20T03:46:02.364Z,7.53
2018-08-20T03:48:30.706Z,8.13
2018-08-20T03:50:58.944Z,7.47
2018-08-20T03:53:27.172Z,7.73
2018-08-20T03:55:55.425Z,7.90
2018-08-20T03:58:23.675Z,7.93
2018-08-20T04:00:51.920Z,8.00
2018-08-20T04:03:20.144Z,8.07
2018-08-20T04:05:48.408Z,8.30
2018-08-20T04:08:16.683Z,9.30
2018-08-20T04:10:44.924Z,8.83
2018-08-20T04:13:13.145Z,9.03
2018-08-20T04:15:41.460Z,8.73
2018-08-20T04:18:09.796Z,8.97
2018-08-20T04:20:38.024Z,8.87
2018-08-20T04:23:06.308Z,8.60
2018-08-20T04:25:35.004Z,9.37
2018-08-20T04:28:03.349Z,8.97
2018-08-20T04:30:31.620Z,8.23
2018-08-20T04:32:59.825Z,8.47
2018-08-20T04:35:28.036Z,8.97
2018-08-20T04:37:56.340Z,8.93
2018-08-20T04:40:24.636Z,8.37
2018-08-20T04:42:52.841Z,8.40
2018-08-20T04:45:21.092Z,10.00
2018-08-20T04:47:49.514Z,9.37
2018-08-20T04:50:17.935Z,9.60
2018-08-20T04:52:46.048Z,10.37
2018-08-20T04:55:14.301Z,9.40
2018-08-20T04:57:42.728Z,9.63
2018-08-20T05:00:12.100Z,9.23
2018-08-20T05:02:40.360Z,9.33
2018-08-20T05:05:08.579Z,9.33
2018-08-20T05:07:36.806Z,9.20
2018-08-20T05:10:05.193Z,7.87
2018-08-20T05:12:33.488Z,7.93
2018-08-20T05:15:01.709Z,8.73
2018-08-20T05:17:30.059Z,8.60
2018-08-20T05:19:58.395Z,8.27
2018-08-20T05:22:26.628Z,8.93
2018-08-20T05:24:54.839Z,8.37
2018-08-20T05:27:23.105Z,8.70
2018-08-20T05:29:51.341Z,8.93
2018-08-20T05:32:19.580Z,8.30
2018-08-20T05:34:47.909Z,8.37
2018-08-20T05:37:16.133Z,8.50
2018-08-20T05:39:44.344Z,9.17
2018-08-20T05:42:12.566Z,8.73
2018-08-20T05:44:40.823Z,8.40
2018-08-20T05:47:09.036Z,9.27
2018-08-20T05:49:37.272Z,9.13
2018-08-20T05:52:05.797Z,9.43
2018-08-20T05:54:34.022Z,9.00
2018-08-20T05:57:02.280Z,9.70
2018-08-20T05:59:30.533Z,8.97
2018-08-20T06:01:58.766Z,8.70
2018-08-20T06:04:26.986Z,8.37
2018-08-20T06:06:55.256Z,9.40
2018-08-20T06:09:23.465Z,9.10
2018-08-20T06:11:51.768Z,9.13
2018-08-20T06:14:19.992Z,8.90
2018-08-20T06:16:48.256Z,8.90
2018-08-20T06:19:16.473Z,9.87
2018-08-20T06:21:44.725Z,8.70
2018-08-20T06:24:12.974Z,8.73
2018-08-20T06:26:41.213Z,9.07
2018-08-20T06:29:09.434Z,9.10
2018-08-20T06:31:37.669Z,8.70
2018-08-20T06:34:05.985Z,9.23
2018-08-20T06:36:34.243Z,9.23
2018-08-20T06:39:02.451Z,8.57
2018-08-20T06:41:30.770Z,9.00
2018-08-20T06:43:59.005Z,9.57
2018-08-20T06:46:27.288Z,8.73
2018-08-20T06:48:55.505Z,8.70
2018-08-20T06:51:23.741Z,8.87
2018-08-20T06:53:51.943Z,8.93
2018-08-20T06:56:20.194Z,8.70
2018-08-20T06:58:48.422Z,8.63
2018-08-20T07:01:16.633Z,8.47
2018-08-20T07:03:44.865Z,8.80
2018-08-20T07:06:13.084Z,9.43
2018-08-20T07:08:41.336Z,8.70
2018-08-20T07:11:09.563Z,8.40
2018-08-20T07:13:38.311Z,9.03
2018-08-20T07:16:07.663Z,8.47
2018-08-20T07:18:35.929Z,8.00
2018-08-20T07:21:04.179Z,9.27
2018-08-20T07:23:32.567Z,8.03
2018-08-20T07:26:00.689Z,7.47
2018-08-20T07:28:28.927Z,6.45
2018-08-20T07:30:57.169Z,7.05
2018-08-20T07:33:25.400Z,6.35
2018-08-20T07:35:53.643Z,7.17
2018-08-20T07:38:21.909Z,6.83
2018-08-20T07:40:50.131Z,6.72
2018-08-20T07:43:18.384Z,7.58
2018-08-20T07:45:46.628Z,7.10
2018-08-20T07:48:14.869Z,7.85
2018-08-20T07:50:43.213Z,7.87
2018-08-20T07:53:11.523Z,7.60
2018-08-20T07:55:40.006Z,6.85
2018-08-20T07:58:08.697Z,7.75
2018-08-20T08:00:37.012Z,7.15
2018-08-20T08:03:05.302Z,7.50
2018-08-20T08:05:33.532Z,6.75
2018-08-20T08:08:01.832Z,6.58
2018-08-20T08:10:30.096Z,6.58
2018-08-20T08:12:58.360Z,6.25
2018-08-20T08:15:26.631Z,6.30
2018-08-20T08:17:54.914Z,6.58
2018-08-20T08:20:23.235Z,6.78
2018-08-20T08:22:51.467Z,6.75
2018-08-20T08:25:19.696Z,6.15
2018-08-20T08:27:47.923Z,6.42
2018-08-20T08:30:18.107Z,6.28
2018-08-20T08:32:48.335Z,6.28
2018-08-20T08:35:16.574Z,6.85
2018-08-20T08:37:44.834Z,6.90
2018-08-20T08:40:14.294Z,6.33
2018-08-20T08:42:42.573Z,7.03
2018-08-20T08:45:15.407Z,7.05
2018-08-20T08:47:44.161Z,7.05
2018-08-20T08:50:12.861Z,6.70
2018-08-20T08:52:41.322Z,6.42
2018-08-20T08:55:10.127Z,7.10
2018-08-20T08:57:38.993Z,6.63
2018-08-20T09:00:24.252Z,6.60
2018-08-20T09:02:52.582Z,6.93
2018-08-20T09:05:20.792Z,7.22
2018-08-20T09:07:49.095Z,7.20
2018-08-20T09:10:17.368Z,7.13
2018-08-20T09:12:45.641Z,7.67
2018-08-20T09:15:15.313Z,7.07
2018-08-20T09:17:44.013Z,7.20
2018-08-20T09:20:14.135Z,8.10
2018-08-20T09:22:42.550Z,7.50
2018-08-20T09:25:11.730Z,7.43
2018-08-20T09:27:40.689Z,6.27
2018-08-20T09:30:11.778Z,5.83
2018-08-20T09:32:40.134Z,5.10
2018-08-20T09:35:09.237Z,5.27
2018-08-20T09:37:37.887Z,5.30
2018-08-20T09:40:06.392Z,4.57
2018-08-20T09:42:34.636Z,3.97
2018-08-20T09:45:03.002Z,3.73
2018-08-20T09:47:31.304Z,3.80
2018-08-20T09:50:00.405Z,3.83
2018-08-20T09:52:28.740Z,4.50
2018-08-20T09:54:57.030Z,4.20
2018-08-20T09:57:25.440Z,4.33
2018-08-20T09:59:56.893Z,4.28
2018-08-20T10:02:25.439Z,4.07
2018-08-20T10:04:53.664Z,4.17
2018-08-20T10:07:21.990Z,4.70
2018-08-20T10:09:50.318Z,4.45
2018-08-20T10:12:18.609Z,4.72
2018-08-20T10:14:47.044Z,4.95
2018-08-20T10:17:15.283Z,4.08
2018-08-20T10:19:43.702Z,3.50
2018-08-20T10:22:11.954Z,2.65
2018-08-20T10:24:40.246Z,2.10
2018-08-20T10:27:08.519Z,2.33
2018-08-20T10:29:36.769Z,3.08
2018-08-20T10:32:05.067Z,3.20
2018-08-20T10:34:33.252Z,3.02
2018-08-20T10:37:01.485Z,3.27
2018-08-20T10:39:29.726Z,2.75
2018-08-20T10:41:57.985Z,3.02
2018-08-20T10:44:26.207Z,3.00
2018-08-20T10:46:54.437Z,2.98
2018-08-20T10:49:22.672Z,3.30
2018-08-20T10:51:50.892Z,3.10
2018-08-20T10:54:19.152Z,2.90
2018-08-20T10:56:47.361Z,3.20
2018-08-20T10:59:15.658Z,3.67
2018-08-20T11:01:43.884Z,3.30
2018-08-20T11:04:12.150Z,3.03
2018-08-20T11:06:40.393Z,2.70
2018-08-20T11:09:08.654Z,2.90
2018-08-20T11:11:36.881Z,3.35
2018-08-20T11:14:05.118Z,2.95
2018-08-20T11:16:33.319Z,2.80
2018-08-20T11:19:01.550Z,2.80
2018-08-20T11:21:29.782Z,2.77
2018-08-20T11:23:58.014Z,3.90
2018-08-20T11:26:26.251Z,2.70
2018-08-20T11:28:54.479Z,2.60
2018-08-20T11:31:22.701Z,2.52
2018-08-20T11:33:50.915Z,2.75
2018-08-20T11:36:19.407Z,2.60
2018-08-20T11:38:47.691Z,3.15
2018-08-20T11:41:16.059Z,2.85
2018-08-20T11:43:44.269Z,2.80
2018-08-20T11:46:12.594Z,3.70
2018-08-20T11:48:40.824Z,2.70
2018-08-20T11:51:09.237Z,2.60
2018-08-20T11:53:37.586Z,2.20
2018-08-20T11:56:05.865Z,2.27
2018-08-20T11:58:34.117Z,2.35
2018-08-20T12:01:02.424Z,2.35
2018-08-20T12:03:30.650Z,2.50
2018-08-20T12:05:58.901Z,3.62
2018-08-20T12:08:27.132Z,2.20
2018-08-20T12:10:55.365Z,2.08
2018-08-20T12:13:23.595Z,2.30
2018-08-20T12:15:51.897Z,2.10
2018-08-20T12:18:20.167Z,1.90
2018-08-20T12:20:48.428Z,1.90
2018-08-20T12:23:16.699Z,1.80
2018-08-20T12:25:44.874Z,1.77
2018-08-20T12:28:13.206Z,1.90
2018-08-20T12:30:41.410Z,1.72
2018-08-20T12:33:09.638Z,1.52
2018-08-20T12:35:37.891Z,1.95
2018-08-20T12:38:06.249Z,1.90
2018-08-20T12:40:35.448Z,1.67
2018-08-20T12:43:03.621Z,1.72
2018-08-20T12:45:31.932Z,1.90
2018-08-20T12:48:00.181Z,2.05
2018-08-20T12:50:28.412Z,2.12
2018-08-20T12:52:56.771Z,1.80
2018-08-20T12:55:24.983Z,1.60
2018-08-20T12:57:53.258Z,1.60
2018-08-20T13:00:21.551Z,2.08
2018-08-20T13:02:49.778Z,2.00
2018-08-20T13:05:18.008Z,1.70
2018-08-20T13:07:46.231Z,2.00
2018-08-20T13:10:14.497Z,2.17
2018-08-20T13:12:42.732Z,2.47
2018-08-20T13:15:10.941Z,2.35
2018-08-20T13:17:39.193Z,2.20
2018-08-20T13:20:07.652Z,2.22
2018-08-20T13:22:35.998Z,1.98
2018-08-20T13:25:04.348Z,2.00
2018-08-20T13:27:32.641Z,2.00
2018-08-20T13:30:00.921Z,1.90
2018-08-20T13:32:29.159Z,1.75
2018-08-20T13:34:57.373Z,1.60
2018-08-20T13:37:25.711Z,2.00
2018-08-20T13:39:53.863Z,2.05
2018-08-20T13:42:22.120Z,1.87
2018-08-20T13:44:50.390Z,2.30
2018-08-20T13:47:18.616Z,2.02
2018-08-20T13:49:46.848Z,1.87
2018-08-20T13:52:15.095Z,2.27
2018-08-20T13:54:43.665Z,1.82
2018-08-20T13:57:11.888Z,1.90
2018-08-20T13:59:40.136Z,1.60
2018-08-20T14:02:08.365Z,1.90
2018-08-20T14:04:36.645Z,1.50
2018-08-20T14:07:04.910Z,1.92
2018-08-20T14:09:33.152Z,1.80
2018-08-20T14:12:01.462Z,1.70
2018-08-20T14:14:29.660Z,1.70
2018-08-20T14:16:57.899Z,1.90
2018-08-20T14:19:26.144Z,1.90
2018-08-20T14:21:54.415Z,2.10
2018-08-20T14:24:22.637Z,2.25
2018-08-20T14:26:50.950Z,1.50
2018-08-20T14:29:19.156Z,2.02
2018-08-20T14:31:47.382Z,2.33
2018-08-20T14:34:15.620Z,2.00
2018-08-20T14:36:45.196Z,2.20
2018-08-20T14:39:13.400Z,2.65
2018-08-20T14:41:41.626Z,1.80
2018-08-20T14:44:09.872Z,1.90
2018-08-20T14:46:38.109Z,1.80
2018-08-20T14:49:06.336Z,2.23
2018-08-20T14:51:34.789Z,2.05
2018-08-20T14:54:02.997Z,2.12
2018-08-20T14:56:31.220Z,1.98
2018-08-20T14:58:59.423Z,2.15
2018-08-20T15:01:27.732Z,2.37
2018-08-20T15:03:55.983Z,2.08
2018-08-20T15:06:24.189Z,2.10
2018-08-20T15:08:52.425Z,1.90
2018-08-20T15:11:20.677Z,2.27
2018-08-20T15:13:48.950Z,2.02
2018-08-20T15:16:17.696Z,2.02
2018-08-20T15:18:45.951Z,2.40
2018-08-20T15:21:14.188Z,2.00
2018-08-20T15:23:43.195Z,2.40
2018-08-20T15:26:11.394Z,2.40
2018-08-20T15:28:39.634Z,1.98
2018-08-20T15:31:07.864Z,2.17
2018-08-20T15:33:36.144Z,3.00
2018-08-20T15:36:04.728Z,2.40
2018-08-20T15:38:32.959Z,2.25
2018-08-20T15:41:01.188Z,2.37
2018-08-20T15:43:29.423Z,2.40
2018-08-20T15:45:57.627Z,2.85
2018-08-20T15:48:25.885Z,2.35
2018-08-20T15:50:54.097Z,2.10
2018-08-20T15:53:22.389Z,2.20
2018-08-20T15:55:50.746Z,2.00
2018-08-20T15:58:19.169Z,2.75
2018-08-20T16:00:47.397Z,2.27
2018-08-20T16:03:15.664Z,2.35
2018-08-20T16:05:43.911Z,3.00
2018-08-20T16:08:12.162Z,2.50
2018-08-20T16:10:40.492Z,2.20
2018-08-20T16:13:08.794Z,1.80
2018-08-20T16:15:37.074Z,2.10
2018-08-20T16:18:05.831Z,1.90
2018-08-20T16:20:34.057Z,2.00
2018-08-20T16:23:02.321Z,2.35
2018-08-20T16:25:30.693Z,2.10
2018-08-20T16:27:58.960Z,1.97
2018-08-20T16:30:27.208Z,1.90
2018-08-20T16:32:55.510Z,1.90
2018-08-20T16:35:23.740Z,2.00
2018-08-20T16:37:52.318Z,2.00
2018-08-20T16:40:20.548Z,1.77
2018-08-20T16:42:48.842Z,1.90
2018-08-20T16:45:17.061Z,1.83
2018-08-20T16:47:45.274Z,2.30
2018-08-20T16:50:13.978Z,2.00
2018-08-20T16:52:43.065Z,2.13
2018-08-20T16:55:11.328Z,2.10
2018-08-20T16:57:39.616Z,2.30
2018-08-20T17:00:09.764Z,2.03
2018-08-20T17:02:39.517Z,2.17
2018-08-20T17:05:08.984Z,2.60
2018-08-20T17:07:37.231Z,2.20
2018-08-20T17:10:06.853Z,2.50
2018-08-20T17:12:35.097Z,2.47
2018-08-20T17:15:07.918Z,2.07
2018-08-20T17:17:36.576Z,2.20
2018-08-20T17:20:05.272Z,2.50
2018-08-20T17:22:33.496Z,2.10
2018-08-20T17:25:01.882Z,2.23
2018-08-20T17:27:30.095Z,2.23
2018-08-20T17:29:58.329Z,2.40
2018-08-20T17:32:26.686Z,2.20
2018-08-20T17:34:54.975Z,2.50
2018-08-20T17:37:23.184Z,2.57
2018-08-20T17:40:00.057Z,2.60
2018-08-20T17:42:29.618Z,2.57
2018-08-20T17:44:58.338Z,2.43
2018-08-20T17:47:27.339Z,2.40
2018-08-20T17:49:56.608Z,2.60
2018-08-20T17:52:34.795Z,2.30
2018-08-20T17:55:05.078Z,2.70
2018-08-20T17:57:33.616Z,2.77
2018-08-20T18:00:43.444Z,2.30
2018-08-20T18:03:18.264Z,2.33
2018-08-20T18:05:53.202Z,2.50
2018-08-20T18:08:22.292Z,2.80
2018-08-20T18:10:50.911Z,2.33
2018-08-20T18:13:32.285Z,2.47
2018-08-20T18:16:01.599Z,2.30
2018-08-20T18:18:33.527Z,2.57
2018-08-20T18:21:01.795Z,2.90
2018-08-20T18:23:31.409Z,2.60
2018-08-20T18:25:59.656Z,2.20
2018-08-20T18:28:28.381Z,2.20
2018-08-20T18:31:01.904Z,2.20
2018-08-20T18:33:30.152Z,2.70
2018-08-20T18:36:02.837Z,2.10
2018-08-20T18:38:33.066Z,2.40
2018-08-20T18:41:01.324Z,2.73
2018-08-20T18:43:29.565Z,2.40
2018-08-20T18:45:57.816Z,2.87
2018-08-20T18:48:30.279Z,2.97
2018-08-20T18:50:58.520Z,2.60
2018-08-20T18:53:31.182Z,2.60
2018-08-20T18:56:02.629Z,2.90
2018-08-20T18:58:31.849Z,2.50
2018-08-20T19:01:00.144Z,2.53
2018-08-20T19:03:32.621Z,2.10
2018-08-20T19:06:03.608Z,2.90
2018-08-20T19:08:32.356Z,2.80
2018-08-20T19:11:00.597Z,2.60
2018-08-20T19:13:28.820Z,2.20
2018-08-20T19:15:57.056Z,2.50
2018-08-20T19:18:35.056Z,2.80
2018-08-20T19:21:04.397Z,2.70
2018-08-20T19:23:32.665Z,2.50
2018-08-20T19:26:00.906Z,3.30
2018-08-20T19:28:29.110Z,2.80
2018-08-20T19:30:57.443Z,3.10
2018-08-20T19:33:28.206Z,2.37
2018-08-20T19:35:56.453Z,2.70
2018-08-20T19:38:24.748Z,2.70
2018-08-20T19:41:02.563Z,2.80
2018-08-20T19:43:35.073Z,3.00
2018-08-20T19:46:03.433Z,2.90
2018-08-20T19:48:31.652Z,2.97
2018-08-20T19:50:59.888Z,2.77
2018-08-20T19:53:28.191Z,3.00
2018-08-20T19:55:56.530Z,3.27
2018-08-20T19:58:30.520Z,3.00
2018-08-20T20:01:09.108Z,2.87
2018-08-20T20:03:40.384Z,3.13
2018-08-20T20:06:08.873Z,3.20
2018-08-20T20:08:37.347Z,2.90
2018-08-20T20:11:09.204Z,3.20
2018-08-20T20:13:37.469Z,2.87
2018-08-20T20:16:05.725Z,4.33
2018-08-20T20:18:34.011Z,3.23
2018-08-20T20:21:02.782Z,3.17
2018-08-20T20:23:31.092Z,3.27
2018-08-20T20:25:59.316Z,3.10
2018-08-20T20:28:27.546Z,3.00
2018-08-20T20:30:55.800Z,3.60
2018-08-20T20:33:24.152Z,3.23
2018-08-20T20:35:52.518Z,2.90
2018-08-20T20:38:20.803Z,3.13
2018-08-20T20:40:49.064Z,2.90
2018-08-20T20:43:19.445Z,3.07
2018-08-20T20:45:47.697Z,2.80
2018-08-20T20:48:15.959Z,3.27
2018-08-20T20:50:44.197Z,2.77
2018-08-20T20:53:12.449Z,3.10
2018-08-20T20:55:40.836Z,3.10
2018-08-20T20:58:09.257Z,2.80
2018-08-20T21:00:37.461Z,2.60
2018-08-20T21:03:11.734Z,2.70
2018-08-20T21:05:40.076Z,3.00
2018-08-20T21:08:08.313Z,2.77
2018-08-20T21:10:41.813Z,2.60
2018-08-20T21:13:10.059Z,2.60
2018-08-20T21:15:38.469Z,2.63
2018-08-20T21:18:06.808Z,2.50
2018-08-20T21:20:35.017Z,2.30
2018-08-20T21:23:03.252Z,2.83
2018-08-20T21:25:31.476Z,2.33
2018-08-20T21:27:59.716Z,2.47
2018-08-20T21:30:32.188Z,2.70
2018-08-20T21:33:00.408Z,2.40
2018-08-20T21:35:28.632Z,2.43
2018-08-20T21:37:57.046Z,2.77
2018-08-20T21:40:30.676Z,2.33
2018-08-20T21:42:59.262Z,2.20
2018-08-20T21:45:27.474Z,2.73
2018-08-20T21:47:55.699Z,2.60
2018-08-20T21:50:23.909Z,2.93
2018-08-20T21:52:57.804Z,2.70
2018-08-20T21:55:26.029Z,2.57
2018-08-20T21:57:56.373Z,2.60
2018-08-20T22:00:24.792Z,5.17
2018-08-20T22:02:59.757Z,3.10
2018-08-20T22:05:28.258Z,2.67
2018-08-20T22:07:57.481Z,2.30
2018-08-20T22:10:26.717Z,2.40
2018-08-20T22:12:54.974Z,2.33
2018-08-20T22:15:23.252Z,1.93
2018-08-20T22:17:51.505Z,2.13
2018-08-20T22:20:19.725Z,1.90
2018-08-20T22:22:47.942Z,1.80
2018-08-20T22:25:16.896Z,2.10
2018-08-20T22:27:50.500Z,2.00
2018-08-20T22:30:18.734Z,2.10
2018-08-20T22:32:47.072Z,2.00
2018-08-20T22:35:20.674Z,1.60
2018-08-20T22:37:50.864Z,1.80
2018-08-20T22:40:19.780Z,1.90
2018-08-20T22:42:50.733Z,1.73
2018-08-20T22:45:19.975Z,2.00
2018-08-20T22:47:49.164Z,1.77
2018-08-20T22:50:17.453Z,1.80
2018-08-20T22:52:47.264Z,1.60
2018-08-20T22:55:16.599Z,1.40
2018-08-20T22:57:56.065Z,1.50
2018-08-20T23:00:25.408Z,1.50
2018-08-20T23:02:54.842Z,1.70
2018-08-20T23:05:23.055Z,1.50
2018-08-20T23:07:51.657Z,1.60
2018-08-20T23:10:19.943Z,1.50
2018-08-20T23:12:50.339Z,1.50
2018-08-20T23:15:18.742Z,1.37
2018-08-20T23:17:46.990Z,1.40
2018-08-20T23:20:32.654Z,1.43
2018-08-20T23:23:01.543Z,1.33
2018-08-20T23:25:29.980Z,1.60
2018-08-20T23:27:58.214Z,1.20
2018-08-20T23:30:26.438Z,1.40
2018-08-20T23:32:54.796Z,1.60
2018-08-20T23:35:23.062Z,1.50
2018-08-20T23:37:51.743Z,1.40
2018-08-20T23:40:19.997Z,1.60
2018-08-20T23:42:48.235Z,1.60
2018-08-20T23:45:16.489Z,1.67
2018-08-20T23:47:44.715Z,1.40
2018-08-20T23:50:12.937Z,1.37
2018-08-20T23:52:42.428Z,1.60
2018-08-20T23:55:10.669Z,1.47
2018-08-20T23:57:39.073Z,1.50
